createdAt,value
2017-07-15T00:01:30.042Z,14.70
2017-07-15T00:03:57.786Z,14.70
2017-07-15T00:06:25.233Z,14.70
2017-07-15T00:08:52.703Z,14.70
2017-07-15T00:11:20.175Z,14.70
2017-07-15T00:13:48.021Z,15.00
2017-07-15T00:16:15.480Z,15.00
2017-07-15T00:18:43.353Z,14.80
2017-07-15T00:21:10.813Z,14.80
2017-07-15T00:23:38.265Z,14.90
2017-07-15T00:26:06.022Z,14.90
2017-07-15T00:28:33.479Z,14.90
2017-07-15T00:31:00.938Z,14.70
2017-07-15T00:33:28.422Z,14.80
2017-07-15T00:35:55.878Z,15.10
2017-07-15T00:38:23.408Z,15.00
2017-07-15T00:40:51.305Z,15.10
2017-07-15T00:43:18.770Z,15.10
2017-07-15T00:45:46.231Z,14.80
2017-07-15T00:48:13.703Z,14.70
2017-07-15T00:50:41.450Z,14.60
2017-07-15T00:53:08.904Z,14.60
2017-07-15T00:55:36.700Z,14.60
2017-07-15T00:58:04.153Z,14.60
2017-07-15T01:00:31.596Z,14.70
2017-07-15T01:02:59.155Z,14.80
2017-07-15T01:05:26.610Z,14.70
2017-07-15T01:07:54.053Z,14.60
2017-07-15T01:10:21.516Z,14.80
2017-07-15T01:12:48.969Z,15.00
2017-07-15T01:15:16.412Z,14.90
2017-07-15T01:17:43.883Z,14.90
2017-07-15T01:20:11.324Z,14.80
2017-07-15T01:22:38.766Z,14.90
2017-07-15T01:25:07.284Z,14.80
2017-07-15T01:27:34.733Z,15.00
2017-07-15T01:30:02.170Z,14.90
2017-07-15T01:32:29.623Z,14.60
2017-07-15T01:34:57.075Z,14.60
2017-07-15T01:37:24.525Z,14.60
2017-07-15T01:39:51.991Z,14.60
2017-07-15T01:42:19.441Z,14.60
2017-07-15T01:44:46.889Z,14.70
2017-07-15T01:47:14.448Z,14.50
2017-07-15T01:49:41.890Z,14.40
2017-07-15T01:52:09.328Z,14.50
2017-07-15T01:54:37.196Z,14.70
2017-07-15T01:57:05.037Z,14.80
2017-07-15T01:59:32.480Z,14.80
2017-07-15T02:01:59.940Z,14.70
2017-07-15T02:04:27.379Z,14.60
2017-07-15T02:06:54.824Z,14.60
2017-07-15T02:09:22.382Z,14.80
2017-07-15T02:11:49.832Z,14.50
2017-07-15T02:14:17.275Z,14.40
2017-07-15T02:16:44.849Z,14.20
2017-07-15T02:19:12.288Z,14.30
2017-07-15T02:21:39.742Z,14.30
2017-07-15T02:24:07.207Z,14.20
2017-07-15T02:26:34.642Z,14.50
2017-07-15T02:29:02.083Z,14.70
2017-07-15T02:31:29.555Z,14.50
2017-07-15T02:33:57.004Z,14.30
2017-07-15T02:36:24.456Z,14.30
2017-07-15T02:38:51.925Z,14.40
2017-07-15T02:41:19.764Z,14.40
2017-07-15T02:43:47.600Z,14.60
2017-07-15T02:46:15.240Z,14.60
2017-07-15T02:48:42.680Z,14.80
2017-07-15T02:51:10.136Z,14.60
2017-07-15T02:53:37.893Z,14.90
2017-07-15T02:56:05.348Z,14.50
2017-07-15T02:58:32.799Z,14.60
2017-07-15T03:01:00.271Z,14.40
2017-07-15T03:03:27.721Z,14.40
2017-07-15T03:05:55.170Z,14.20
2017-07-15T03:08:22.631Z,14.30
2017-07-15T03:10:50.384Z,14.00
2017-07-15T03:13:17.833Z,14.00
2017-07-15T03:15:45.303Z,14.00
2017-07-15T03:18:12.750Z,14.10
2017-07-15T03:20:40.198Z,14.00
2017-07-15T03:23:07.747Z,14.30
2017-07-15T03:25:35.199Z,14.60
2017-07-15T03:28:02.640Z,14.70
2017-07-15T03:30:30.500Z,14.80
2017-07-15T03:32:58.336Z,15.00
2017-07-15T03:35:25.780Z,15.00
2017-07-15T03:37:53.243Z,14.70
2017-07-15T03:40:20.688Z,14.60
2017-07-15T03:42:48.128Z,14.50
2017-07-15T03:45:15.799Z,14.60
2017-07-15T03:47:43.243Z,14.50
2017-07-15T03:50:10.682Z,14.30
2017-07-15T03:52:38.151Z,14.50
2017-07-15T03:55:05.593Z,14.20
2017-07-15T03:57:33.040Z,14.10
2017-07-15T04:00:00.759Z,14.10
2017-07-15T04:02:28.196Z,14.50
2017-07-15T04:04:55.640Z,14.50
2017-07-15T04:07:23.308Z,14.80
2017-07-15T04:09:50.747Z,14.90
2017-07-15T04:12:18.197Z,14.90
2017-07-15T04:14:45.660Z,15.00
2017-07-15T04:17:13.123Z,14.90
2017-07-15T04:19:40.565Z,15.10
2017-07-15T04:22:08.244Z,14.90
2017-07-15T04:24:35.688Z,14.80
2017-07-15T04:27:03.131Z,14.70
2017-07-15T04:29:30.814Z,14.40
2017-07-15T04:31:58.261Z,14.40
2017-07-15T04:34:25.715Z,14.30
2017-07-15T04:36:53.168Z,14.00
2017-07-15T04:39:20.612Z,14.00
2017-07-15T04:41:48.055Z,13.90
2017-07-15T04:44:15.703Z,13.90
2017-07-15T04:46:43.147Z,13.70
2017-07-15T04:49:11.002Z,13.70
2017-07-15T04:51:38.866Z,13.90
2017-07-15T04:54:06.316Z,13.90
2017-07-15T04:56:34.155Z,13.60
2017-07-15T04:59:01.633Z,13.60
2017-07-15T05:01:29.068Z,13.40
2017-07-15T05:03:56.518Z,13.50
2017-07-15T05:06:24.184Z,13.60
2017-07-15T05:08:51.631Z,13.80
2017-07-15T05:11:19.080Z,13.70
2017-07-15T05:13:46.641Z,13.70
2017-07-15T05:16:14.090Z,13.60
2017-07-15T05:18:41.536Z,13.60
2017-07-15T05:21:09.216Z,13.70
2017-07-15T05:23:36.667Z,13.70
2017-07-15T05:26:04.120Z,13.60
2017-07-15T05:28:31.824Z,13.70
2017-07-15T05:30:59.667Z,13.50
2017-07-15T05:33:27.112Z,13.60
2017-07-15T05:35:55.106Z,13.50
2017-07-15T05:38:22.552Z,13.40
2017-07-15T05:40:49.998Z,13.50
2017-07-15T05:43:17.465Z,13.40
2017-07-15T05:45:45.309Z,13.60
2017-07-15T05:48:12.756Z,13.70
2017-07-15T05:50:40.233Z,13.50
2017-07-15T05:53:07.689Z,13.30
2017-07-15T05:55:35.131Z,13.30
2017-07-15T05:58:02.844Z,13.40
2017-07-15T06:00:30.284Z,13.30
2017-07-15T06:02:58.143Z,13.50
2017-07-15T06:05:25.994Z,13.60
2017-07-15T06:07:53.431Z,13.60
2017-07-15T06:10:20.876Z,14.10
2017-07-15T06:12:48.352Z,13.90
2017-07-15T06:15:15.801Z,13.90
2017-07-15T06:17:43.249Z,13.80
2017-07-15T06:20:10.882Z,13.80
2017-07-15T06:22:38.332Z,13.70
2017-07-15T06:25:05.769Z,13.80
2017-07-15T06:27:33.576Z,13.80
2017-07-15T06:30:01.020Z,13.80
2017-07-15T06:32:28.467Z,14.00
2017-07-15T06:34:56.419Z,14.10
2017-07-15T06:37:23.892Z,14.40
2017-07-15T06:39:51.345Z,14.10
2017-07-15T06:42:19.128Z,14.00
2017-07-15T06:44:46.580Z,13.90
2017-07-15T06:47:14.032Z,13.90
2017-07-15T06:49:41.496Z,14.00
2017-07-15T06:52:08.945Z,14.20
2017-07-15T06:54:36.393Z,14.10
2017-07-15T06:57:04.169Z,14.30
2017-07-15T06:59:31.621Z,14.20
2017-07-15T07:01:59.079Z,14.10
2017-07-15T07:04:26.555Z,14.30
2017-07-15T07:06:54.400Z,14.10
2017-07-15T07:09:21.850Z,14.10
2017-07-15T07:11:50.327Z,14.10
2017-07-15T07:14:17.773Z,14.20
2017-07-15T07:16:45.230Z,14.20
2017-07-15T07:19:13.017Z,14.50
2017-07-15T07:21:40.470Z,14.20
2017-07-15T07:24:07.920Z,14.20
2017-07-15T07:26:35.687Z,14.30
2017-07-15T07:29:03.136Z,14.30
2017-07-15T07:31:31.542Z,14.30
2017-07-15T07:33:59.483Z,14.50
2017-07-15T07:36:26.929Z,14.50
2017-07-15T07:38:54.392Z,14.70
2017-07-15T07:41:22.006Z,15.10
2017-07-15T07:43:49.440Z,15.30
2017-07-15T07:46:16.893Z,15.70
2017-07-15T07:48:44.838Z,15.00
2017-07-15T07:51:12.294Z,15.00
2017-07-15T07:53:39.736Z,15.00
2017-07-15T07:56:07.218Z,14.80
2017-07-15T07:58:35.059Z,14.70
2017-07-15T08:01:02.511Z,14.70
2017-07-15T08:03:29.991Z,15.10
2017-07-15T08:05:57.848Z,15.10
2017-07-15T08:08:25.307Z,15.10
2017-07-15T08:10:54.105Z,14.90
2017-07-15T08:13:21.637Z,14.90
2017-07-15T08:15:49.086Z,14.90
2017-07-15T08:18:16.562Z,15.00
2017-07-15T08:20:44.422Z,15.10
2017-07-15T08:23:13.867Z,15.50
2017-07-15T08:25:41.677Z,15.50
2017-07-15T08:28:09.142Z,15.80
2017-07-15T08:30:36.583Z,15.60
2017-07-15T08:33:04.342Z,15.70
2017-07-15T08:35:32.990Z,16.10
2017-07-15T08:38:01.346Z,16.20
2017-07-15T08:40:29.074Z,16.30
2017-07-15T08:42:56.534Z,15.70
2017-07-15T08:45:23.996Z,15.70
2017-07-15T08:47:52.151Z,15.80
2017-07-15T08:50:19.615Z,15.80
2017-07-15T08:52:48.092Z,15.80
2017-07-15T08:55:16.039Z,15.70
2017-07-15T08:57:43.506Z,15.70
2017-07-15T09:00:11.013Z,16.00
2017-07-15T09:02:38.578Z,16.10
2017-07-15T09:05:06.034Z,16.40
2017-07-15T09:07:33.670Z,16.80
2017-07-15T09:10:01.485Z,17.00
2017-07-15T09:12:29.483Z,17.30
2017-07-15T09:14:57.329Z,17.90
2017-07-15T09:17:25.199Z,18.40
2017-07-15T09:19:53.075Z,18.80
2017-07-15T09:22:20.525Z,18.80
2017-07-15T09:24:48.377Z,18.80
2017-07-15T09:27:15.945Z,18.80
2017-07-15T09:29:43.813Z,18.20
2017-07-15T09:32:11.262Z,18.20
2017-07-15T09:34:39.793Z,18.40
2017-07-15T09:37:07.618Z,18.40
2017-07-15T09:39:35.065Z,17.60
2017-07-15T09:42:02.542Z,17.70
2017-07-15T09:44:29.994Z,18.20
2017-07-15T09:46:57.685Z,18.40
2017-07-15T09:49:25.417Z,18.40
2017-07-15T09:51:52.883Z,19.40
2017-07-15T09:54:20.335Z,18.90
2017-07-15T09:56:47.826Z,19.40
2017-07-15T11:24:12.953Z,21.40
2017-07-15T11:26:40.415Z,21.40
2017-07-15T11:29:08.179Z,20.90
2017-07-15T11:31:35.653Z,20.00
2017-07-15T11:34:03.508Z,20.10
2017-07-15T11:36:31.256Z,20.10
2017-07-15T11:38:59.112Z,20.60
2017-07-15T11:41:26.574Z,20.50
2017-07-15T11:43:54.039Z,20.60
2017-07-15T11:46:22.404Z,19.70
2017-07-15T11:48:49.855Z,19.70
2017-07-15T11:51:17.509Z,19.60
2017-07-15T11:53:44.972Z,20.20
2017-07-15T11:56:12.459Z,20.50
2017-07-15T11:58:40.333Z,20.60
2017-07-15T12:01:07.789Z,20.60
2017-07-15T12:03:35.247Z,21.60
2017-07-15T12:06:03.064Z,22.40
2017-07-15T12:08:30.525Z,22.70
2017-07-15T12:10:57.980Z,22.30
2017-07-15T12:13:25.468Z,22.60
2017-07-15T12:15:52.938Z,23.10
2017-07-15T12:18:20.392Z,22.50
2017-07-15T12:20:47.906Z,22.00
2017-07-15T12:23:16.157Z,22.80
2017-07-15T12:25:43.817Z,22.50
2017-07-15T12:28:12.417Z,22.90
2017-07-15T12:30:39.874Z,23.40
2017-07-15T12:33:07.358Z,23.50
2017-07-15T12:35:34.808Z,24.50
2017-07-15T12:38:02.274Z,24.50
2017-07-15T12:40:29.756Z,24.00
2017-07-15T12:42:57.205Z,23.00
2017-07-15T12:45:27.245Z,22.20
2017-07-15T12:47:55.027Z,21.60
2017-07-15T12:50:22.486Z,21.10
2017-07-15T12:52:50.374Z,20.70
2017-07-15T12:55:17.829Z,20.70
2017-07-15T12:57:45.295Z,20.60
2017-07-15T13:00:14.861Z,20.60
2017-07-15T13:02:42.322Z,20.40
2017-07-15T13:05:09.782Z,20.40
2017-07-15T13:07:37.534Z,20.50
2017-07-15T13:10:05.089Z,20.80
2017-07-15T13:12:32.535Z,20.90
2017-07-15T13:15:00.042Z,21.10
2017-07-15T13:17:27.510Z,21.30
2017-07-15T13:19:54.958Z,21.70
2017-07-15T13:22:22.434Z,21.70
2017-07-15T13:24:49.977Z,21.40
2017-07-15T13:27:17.483Z,21.70
2017-07-15T13:29:44.948Z,24.90
2017-07-15T13:32:12.733Z,26.30
2017-07-15T13:34:40.182Z,24.60
2017-07-15T13:37:08.071Z,24.60
2017-07-15T13:39:35.518Z,24.50
2017-07-15T13:42:02.963Z,23.30
2017-07-15T13:44:30.781Z,22.80
2017-07-15T13:46:58.241Z,22.50
2017-07-15T13:49:25.977Z,22.10
2017-07-15T13:51:54.272Z,21.80
2017-07-15T13:54:21.734Z,21.60
2017-07-15T13:56:49.744Z,21.70
2017-07-15T13:59:17.687Z,22.10
2017-07-15T14:01:45.129Z,22.20
2017-07-15T14:04:12.583Z,22.40
2017-07-15T14:06:40.618Z,22.70
2017-07-15T14:09:08.088Z,22.50
2017-07-15T14:11:35.831Z,23.60
2017-07-15T14:14:03.388Z,24.80
2017-07-15T14:16:31.253Z,23.40
2017-07-15T14:18:58.733Z,22.70
2017-07-15T14:21:26.217Z,21.90
2017-07-15T14:23:54.071Z,21.70
2017-07-15T14:26:21.530Z,21.70
2017-07-15T14:28:49.392Z,21.80
2017-07-15T14:31:17.961Z,21.80
2017-07-15T14:33:45.414Z,21.80
2017-07-15T14:36:13.183Z,21.90
2017-07-15T14:38:40.625Z,21.80
2017-07-15T14:41:08.313Z,21.80
2017-07-15T14:43:36.470Z,22.00
2017-07-15T14:46:04.930Z,22.00
2017-07-15T14:48:32.390Z,22.20
2017-07-15T14:51:00.182Z,22.00
2017-07-15T14:53:28.038Z,22.20
2017-07-15T14:55:57.409Z,22.20
2017-07-15T14:58:26.000Z,21.90
2017-07-15T15:00:53.462Z,21.50
2017-07-15T15:03:21.193Z,21.50
2017-07-15T15:05:48.899Z,21.60
2017-07-15T15:08:16.775Z,22.00
2017-07-15T15:10:44.257Z,22.00
2017-07-15T15:13:11.731Z,22.20
2017-07-15T15:15:39.197Z,22.00
2017-07-15T15:18:06.653Z,22.00
2017-07-15T15:20:34.370Z,21.80
2017-07-15T15:23:02.470Z,21.70
2017-07-15T15:25:30.796Z,21.80
2017-07-15T15:27:58.372Z,21.90
2017-07-15T15:30:25.831Z,21.90
2017-07-15T15:32:54.416Z,21.40
2017-07-15T15:35:22.291Z,21.70
2017-07-15T15:37:49.741Z,21.70
2017-07-15T15:40:17.205Z,21.40
2017-07-15T15:42:44.925Z,21.40
2017-07-15T15:45:12.368Z,21.20
2017-07-15T15:47:39.805Z,21.30
2017-07-15T15:50:07.365Z,21.30
2017-07-15T15:52:34.824Z,21.20
2017-07-15T15:55:02.276Z,21.40
2017-07-15T15:57:30.323Z,21.60
2017-07-15T15:59:57.794Z,21.70
2017-07-15T16:02:25.247Z,21.50
2017-07-15T16:04:53.114Z,21.60
2017-07-15T16:07:20.578Z,21.40
2017-07-15T16:09:48.024Z,21.40
2017-07-15T16:12:15.888Z,21.40
2017-07-15T16:14:44.329Z,21.30
2017-07-15T16:17:11.787Z,21.30
2017-07-15T16:19:39.264Z,21.10
2017-07-15T16:22:09.733Z,21.10
2017-07-15T16:24:37.464Z,21.10
2017-07-15T16:27:04.937Z,20.90
2017-07-15T16:29:32.399Z,20.90
2017-07-15T16:31:59.846Z,20.90
2017-07-15T16:34:27.322Z,20.90
2017-07-15T16:36:54.771Z,20.90
2017-07-15T16:39:22.234Z,20.80
2017-07-15T16:41:50.150Z,20.70
2017-07-15T16:44:17.612Z,20.60
2017-07-15T16:46:45.071Z,20.70
2017-07-15T16:49:12.647Z,20.60
2017-07-15T16:51:40.095Z,20.50
2017-07-15T16:54:07.555Z,20.40
2017-07-15T16:56:35.047Z,20.40
2017-07-15T16:59:02.907Z,20.30
2017-07-15T17:01:30.362Z,20.30
2017-07-15T17:03:58.483Z,20.20
2017-07-15T17:06:25.931Z,20.20
2017-07-15T17:08:53.391Z,20.10
2017-07-15T17:11:20.861Z,20.10
2017-07-15T17:13:48.819Z,20.10
2017-07-15T17:16:16.288Z,20.10
2017-07-15T17:18:43.760Z,20.00
2017-07-15T17:21:11.202Z,19.90
2017-07-15T17:23:38.666Z,19.90
2017-07-15T17:26:07.682Z,19.90
2017-07-15T17:28:35.131Z,19.80
2017-07-15T17:31:04.751Z,19.70
2017-07-15T17:33:32.263Z,19.60
2017-07-15T17:35:59.738Z,19.60
2017-07-15T17:38:27.282Z,19.50
2017-07-15T17:40:55.173Z,19.60
2017-07-15T17:43:22.629Z,19.60
2017-07-15T17:45:50.390Z,19.60
2017-07-15T17:48:18.543Z,19.50
2017-07-15T17:50:46.000Z,19.60
2017-07-15T17:53:13.887Z,19.40
2017-07-15T17:55:41.389Z,19.40
2017-07-15T17:58:08.846Z,19.40
2017-07-15T18:00:36.329Z,19.30
2017-07-15T18:03:04.097Z,19.20
2017-07-15T18:05:31.561Z,19.10
2017-07-15T18:07:59.474Z,19.10
2017-07-15T18:10:27.058Z,19.10
2017-07-15T18:12:55.132Z,19.00
2017-07-15T18:15:22.583Z,18.90
2017-07-15T18:17:50.393Z,18.90
2017-07-15T18:20:17.837Z,18.80
2017-07-15T18:22:45.626Z,18.80
2017-07-15T18:25:13.694Z,18.80
2017-07-15T18:27:41.674Z,18.70
2017-07-15T18:30:09.138Z,18.70
2017-07-15T18:32:36.714Z,18.70
2017-07-15T18:35:04.163Z,18.70
2017-07-15T18:37:31.620Z,18.70
2017-07-15T18:39:59.125Z,18.60
2017-07-15T18:42:26.556Z,18.50
2017-07-15T18:44:55.053Z,18.50
2017-07-15T18:47:22.525Z,18.50
2017-07-15T18:49:49.975Z,18.40
2017-07-15T18:52:17.412Z,18.40
2017-07-15T18:54:45.153Z,18.40
2017-07-15T18:57:12.928Z,18.30
2017-07-15T18:59:40.384Z,18.20
2017-07-15T19:02:08.281Z,18.10
2017-07-15T19:04:35.759Z,18.10
2017-07-15T19:07:03.750Z,18.10
2017-07-15T19:09:31.220Z,18.10
2017-07-15T19:11:58.672Z,18.10
2017-07-15T19:14:26.543Z,17.90
2017-07-15T19:16:54.190Z,17.90
2017-07-15T19:19:21.660Z,17.80
2017-07-15T19:21:49.120Z,17.90
2017-07-15T19:24:16.969Z,17.80
2017-07-15T19:26:45.380Z,17.80
2017-07-15T19:29:12.831Z,17.80
2017-07-15T19:31:40.314Z,17.70
2017-07-15T19:34:07.817Z,17.80
2017-07-15T19:36:35.634Z,17.90
2017-07-15T19:39:03.692Z,17.80
2017-07-15T19:41:31.405Z,17.70
2017-07-15T19:43:58.876Z,17.60
2017-07-15T19:46:26.731Z,17.50
2017-07-15T19:48:56.116Z,17.50
2017-07-15T19:51:23.661Z,17.40
2017-07-15T19:53:51.108Z,17.30
2017-07-15T19:56:18.597Z,17.30
2017-07-15T19:58:46.262Z,17.30
2017-07-15T20:01:14.113Z,17.10
2017-07-15T20:03:41.951Z,17.10
2017-07-15T20:06:09.446Z,17.10
2017-07-15T20:08:36.906Z,17.10
2017-07-15T20:11:04.381Z,17.10
2017-07-15T20:13:32.039Z,17.00
2017-07-15T20:15:59.491Z,17.00
2017-07-15T20:18:26.965Z,17.00
2017-07-15T20:20:54.485Z,17.00
2017-07-15T20:23:22.207Z,17.00
2017-07-15T20:25:49.660Z,16.80
2017-07-15T20:28:17.340Z,16.70
2017-07-15T20:30:44.783Z,16.40
2017-07-15T20:33:12.241Z,16.40
2017-07-15T20:35:39.733Z,16.50
2017-07-15T20:38:07.584Z,16.50
2017-07-15T20:40:35.063Z,16.50
2017-07-15T20:43:04.283Z,16.60
2017-07-15T20:45:31.729Z,16.60
2017-07-15T20:47:59.193Z,16.40
2017-07-15T20:50:27.988Z,16.50
2017-07-15T20:53:14.174Z,16.30
2017-07-15T20:55:42.578Z,16.30
2017-07-15T20:58:10.532Z,16.10
2017-07-15T21:00:38.238Z,16.00
2017-07-15T21:03:05.695Z,16.10
2017-07-15T21:05:33.512Z,16.10
2017-07-15T21:08:01.213Z,16.10
2017-07-15T21:10:29.037Z,16.00
2017-07-15T21:12:56.515Z,15.80
2017-07-15T21:15:24.260Z,15.50
2017-07-15T21:17:52.870Z,15.50
2017-07-15T21:20:20.393Z,15.70
2017-07-15T21:22:47.892Z,15.90
2017-07-15T21:25:15.363Z,15.80
2017-07-15T21:27:43.229Z,16.20
2017-07-15T21:30:10.731Z,16.20
2017-07-15T21:32:38.496Z,16.30
2017-07-15T21:35:05.950Z,16.20
2017-07-15T21:37:33.720Z,16.20
2017-07-15T21:40:01.195Z,16.20
2017-07-15T21:42:28.659Z,16.10
2017-07-15T21:44:56.134Z,16.20
2017-07-15T21:47:23.982Z,15.90
2017-07-15T21:49:51.444Z,15.90
2017-07-15T21:52:18.966Z,15.60
2017-07-15T21:54:46.435Z,15.40
2017-07-15T21:57:13.894Z,15.20
2017-07-15T21:59:41.390Z,15.20
2017-07-15T22:02:09.993Z,15.20
2017-07-15T22:04:37.450Z,15.60
2017-07-15T22:07:04.954Z,15.50
2017-07-15T22:09:32.807Z,15.30
2017-07-15T22:12:00.423Z,15.20
2017-07-15T22:14:27.905Z,15.10
2017-07-15T22:16:55.754Z,15.10
2017-07-15T22:19:23.616Z,15.10
2017-07-15T22:21:51.366Z,15.10
2017-07-15T22:24:18.830Z,15.40
2017-07-15T22:26:46.295Z,15.40
2017-07-15T22:29:13.911Z,15.50
2017-07-15T22:31:41.381Z,15.40
2017-07-15T22:34:08.850Z,15.30
2017-07-15T22:36:36.975Z,15.20
2017-07-15T22:39:04.439Z,15.10
2017-07-15T22:41:32.305Z,15.00
2017-07-15T22:44:00.463Z,14.90
2017-07-15T22:46:27.918Z,14.90
2017-07-15T22:48:55.374Z,14.90
2017-07-15T22:51:22.942Z,14.90
2017-07-15T22:53:51.017Z,14.90
2017-07-15T22:56:19.103Z,15.00
2017-07-15T22:58:46.972Z,15.00
2017-07-15T23:01:14.427Z,15.00
2017-07-15T23:03:42.216Z,14.90
2017-07-15T23:06:09.705Z,15.00
2017-07-15T23:08:37.162Z,15.00
2017-07-15T23:11:04.654Z,14.90
2017-07-15T23:13:32.141Z,14.90
2017-07-15T23:15:59.599Z,14.90
2017-07-15T23:18:27.064Z,14.90
2017-07-15T23:20:54.543Z,14.80
2017-07-15T23:23:21.997Z,14.80
2017-07-15T23:25:49.463Z,14.80
2017-07-15T23:28:17.331Z,14.80
2017-07-15T23:30:44.794Z,14.80
2017-07-15T23:33:12.647Z,14.80
2017-07-15T23:35:40.807Z,14.90
2017-07-15T23:38:08.266Z,14.90
2017-07-15T23:40:35.722Z,14.90
2017-07-15T23:43:03.211Z,14.90
2017-07-15T23:45:30.676Z,14.80
2017-07-15T23:47:58.140Z,14.70
2017-07-15T23:50:25.615Z,14.70
2017-07-15T23:52:53.074Z,14.90
2017-07-15T23:55:20.538Z,14.90
2017-07-15T23:57:49.498Z,15.00
